createdAt,value
2022-08-01T00:01:59.316Z,13.23
2022-08-01T00:04:25.896Z,11.57
2022-08-01T00:06:52.394Z,13.13
2022-08-01T00:09:24.082Z,12.70
2022-08-01T00:11:59.684Z,13.00
2022-08-01T00:14:33.170Z,15.82
2022-08-01T00:17:05.150Z,15.52
2022-08-01T00:19:32.080Z,14.20
2022-08-01T00:21:58.656Z,14.68
2022-08-01T00:24:25.137Z,12.32
2022-08-01T00:26:51.625Z,13.88
2022-08-01T00:30:01.119Z,13.43
2022-08-01T00:32:05.214Z,15.98
2022-08-01T00:34:31.917Z,15.00
2022-08-01T00:36:58.374Z,14.02
2022-08-01T00:39:24.938Z,16.35
2022-08-01T00:42:01.663Z,17.10
2022-08-01T00:44:28.462Z,15.50
2022-08-01T00:46:54.978Z,16.05
2022-08-01T00:49:21.640Z,16.00
2022-08-01T00:51:48.265Z,15.90
2022-08-01T00:54:16.737Z,16.27
2022-08-01T00:56:43.817Z,17.85
2022-08-01T00:59:12.087Z,17.98
2022-08-01T01:01:41.147Z,17.55
2022-08-01T01:04:13.834Z,16.83
2022-08-01T01:07:05.960Z,16.27
2022-08-01T01:09:50.774Z,18.80
2022-08-01T01:12:37.390Z,16.33
2022-08-01T01:15:08.057Z,17.90
2022-08-01T01:18:07.090Z,25.33
2022-08-01T01:20:43.472Z,16.67
2022-08-01T01:23:12.770Z,18.15
2022-08-01T01:25:52.342Z,19.40
2022-08-01T01:28:25.000Z,19.98
2022-08-01T01:30:54.442Z,19.45
2022-08-01T01:33:23.724Z,16.85
2022-08-01T01:35:57.600Z,18.52
2022-08-01T01:38:33.106Z,16.88
2022-08-01T01:41:00.975Z,17.67
2022-08-01T01:43:33.764Z,18.17
2022-08-01T01:46:02.286Z,17.50
2022-08-01T01:48:29.916Z,18.58
2022-08-01T01:50:58.159Z,17.13
2022-08-01T01:53:25.982Z,19.15
2022-08-01T01:55:55.542Z,20.33
2022-08-01T01:58:23.832Z,20.10
2022-08-01T02:00:52.953Z,20.70
2022-08-01T02:03:21.654Z,22.65
2022-08-01T02:05:49.574Z,26.15
2022-08-01T02:08:18.245Z,20.80
2022-08-01T02:11:06.438Z,21.08
2022-08-01T02:13:35.338Z,20.88
2022-08-01T02:16:03.970Z,23.30
2022-08-01T02:18:31.138Z,21.00
2022-08-01T02:21:00.009Z,20.20
2022-08-01T02:23:31.625Z,20.48
2022-08-01T02:26:09.596Z,19.50
2022-08-01T02:28:44.743Z,19.40
2022-08-01T02:31:15.408Z,20.63
2022-08-01T02:36:30.554Z,19.02
2022-08-01T02:39:01.541Z,19.58
2022-08-01T02:41:31.065Z,19.08
2022-08-01T02:44:02.667Z,19.90
2022-08-01T02:46:36.162Z,21.10
2022-08-01T02:49:06.036Z,21.30
2022-08-01T02:51:34.354Z,19.85
2022-08-01T02:54:03.691Z,20.95
2022-08-01T02:56:38.198Z,19.83
2022-08-01T02:59:12.494Z,24.15
2022-08-01T03:01:44.144Z,19.08
2022-08-01T03:04:11.800Z,21.53
2022-08-01T03:06:39.678Z,22.58
2022-08-01T03:09:09.429Z,17.58
2022-08-01T03:11:40.801Z,23.10
2022-08-01T03:14:10.079Z,20.42
2022-08-01T03:16:40.030Z,23.50
2022-08-01T03:19:09.583Z,22.42
2022-08-01T03:21:38.163Z,23.02
2022-08-01T03:24:07.468Z,20.38
2022-08-01T03:26:36.717Z,21.10
2022-08-01T03:29:10.755Z,22.55
2022-08-01T03:31:39.272Z,20.60
2022-08-01T03:34:07.046Z,24.13
2022-08-01T03:36:38.189Z,19.83
2022-08-01T03:39:08.312Z,20.90
2022-08-01T03:41:40.543Z,19.48
2022-08-01T03:44:14.324Z,20.38
2022-08-01T03:46:44.719Z,20.92
2022-08-01T03:49:19.800Z,21.70
2022-08-01T03:51:50.445Z,19.20
2022-08-01T03:56:45.753Z,21.35
2022-08-01T03:59:13.056Z,19.00
2022-08-01T04:01:40.134Z,21.90
2022-08-01T04:04:07.181Z,24.52
2022-08-01T04:06:33.668Z,22.27
2022-08-01T04:09:00.512Z,21.38
2022-08-01T04:11:28.664Z,20.38
2022-08-01T04:13:56.282Z,18.52
2022-08-01T04:16:24.337Z,19.90
2022-08-01T04:18:51.290Z,19.45
2022-08-01T04:21:24.547Z,18.70
2022-08-01T04:23:53.903Z,21.83
2022-08-01T04:26:22.833Z,24.00
2022-08-01T04:28:51.021Z,20.15
2022-08-01T04:31:19.659Z,19.10
2022-08-01T04:33:50.680Z,21.00
2022-08-01T04:36:20.669Z,21.60
2022-08-01T04:38:51.598Z,25.77
2022-08-01T04:41:19.625Z,27.17
2022-08-01T04:43:46.170Z,24.08
2022-08-01T04:46:14.188Z,22.55
2022-08-01T04:48:41.524Z,22.25
2022-08-01T04:51:16.341Z,23.23
2022-08-01T04:53:43.990Z,26.98
2022-08-01T04:56:10.577Z,23.10
2022-08-01T04:58:37.051Z,24.95
2022-08-01T05:01:03.579Z,23.70
2022-08-01T05:03:30.077Z,24.77
2022-08-01T05:05:56.546Z,25.20
2022-08-01T05:08:22.998Z,25.85
2022-08-01T05:10:49.532Z,24.17
2022-08-01T05:13:16.500Z,23.05
2022-08-01T05:15:43.147Z,22.77
2022-08-01T05:18:09.725Z,21.85
2022-08-01T05:20:36.761Z,22.13
2022-08-01T05:23:03.543Z,23.25
2022-08-01T05:25:56.431Z,23.85
2022-08-01T05:28:18.925Z,24.60
2022-08-01T05:30:46.019Z,21.45
2022-08-01T05:33:12.510Z,21.75
2022-08-01T05:35:49.008Z,24.17
2022-08-01T05:38:16.108Z,25.30
2022-08-01T05:40:42.620Z,21.77
2022-08-01T05:43:09.085Z,24.20
2022-08-01T05:45:35.582Z,21.85
2022-08-01T05:48:02.061Z,23.67
2022-08-01T05:50:28.580Z,24.23
2022-08-01T05:52:55.129Z,26.55
2022-08-01T05:55:21.612Z,24.45
2022-08-01T05:57:48.070Z,24.20
2022-08-01T06:00:16.380Z,23.83
2022-08-01T06:02:44.086Z,24.27
2022-08-01T06:05:13.253Z,25.10
2022-08-01T06:07:41.123Z,25.92
2022-08-01T06:10:08.673Z,25.08
2022-08-01T06:12:36.058Z,23.48
2022-08-01T06:15:03.951Z,26.55
2022-08-01T06:17:30.510Z,21.67
2022-08-01T06:19:57.243Z,20.98
2022-08-01T06:22:23.685Z,20.13
2022-08-01T06:24:50.981Z,22.17
2022-08-01T06:27:22.377Z,26.98
2022-08-01T06:29:53.276Z,26.98
2022-08-01T06:32:26.655Z,24.13
2022-08-01T06:34:54.102Z,26.90
2022-08-01T06:37:20.767Z,24.90
2022-08-01T06:39:47.669Z,22.77
2022-08-01T06:42:15.812Z,25.80
2022-08-01T06:44:42.550Z,26.60
2022-08-01T06:47:09.139Z,23.35
2022-08-01T06:49:36.013Z,21.85
2022-08-01T06:52:04.290Z,27.05
2022-08-01T06:54:31.193Z,29.42
2022-08-01T06:56:57.664Z,24.13
2022-08-01T06:59:24.132Z,24.35
2022-08-01T07:01:50.588Z,22.25
2022-08-01T07:04:17.074Z,20.15
2022-08-01T07:06:43.561Z,24.13
2022-08-01T07:09:14.137Z,24.85
2022-08-01T07:11:41.247Z,23.80
2022-08-01T07:14:07.821Z,23.92
2022-08-01T07:16:34.310Z,26.35
2022-08-01T07:19:00.754Z,26.35
2022-08-01T07:21:39.303Z,24.52
2022-08-01T07:24:12.904Z,24.20
2022-08-01T07:26:52.516Z,20.98
2022-08-01T07:31:48.092Z,21.88
2022-08-01T07:34:14.584Z,17.48
2022-08-01T07:36:41.030Z,18.42
2022-08-01T07:39:07.543Z,19.98
2022-08-01T07:41:53.429Z,19.67
2022-08-01T07:44:20.580Z,18.48
2022-08-01T07:46:47.104Z,18.25
2022-08-01T07:49:13.729Z,17.20
2022-08-01T07:51:40.212Z,19.33
2022-08-01T07:54:06.715Z,14.07
2022-08-01T07:56:33.169Z,12.80
2022-08-01T07:58:59.685Z,14.20
2022-08-01T08:01:26.244Z,14.00
2022-08-01T08:03:52.790Z,14.93
2022-08-01T08:06:19.260Z,14.70
2022-08-01T08:08:45.737Z,12.18
2022-08-01T08:11:12.238Z,17.52
2022-08-01T08:13:38.672Z,12.30
2022-08-01T08:16:05.115Z,10.52
2022-08-01T08:18:31.687Z,11.75
2022-08-01T08:20:58.216Z,21.58
2022-08-01T08:23:44.133Z,10.98
2022-08-01T08:26:13.745Z,14.82
2022-08-01T08:28:40.813Z,13.43
2022-08-01T08:31:24.886Z,10.45
2022-08-01T08:33:52.721Z,10.18
2022-08-01T08:36:19.309Z,11.43
2022-08-01T08:38:45.806Z,9.85
2022-08-01T08:41:15.062Z,14.93
2022-08-01T08:43:43.559Z,16.52
2022-08-01T08:46:14.658Z,15.18
2022-08-01T08:48:42.790Z,14.20
2022-08-01T08:51:12.382Z,14.63
2022-08-01T08:53:44.831Z,11.15
2022-08-01T08:56:14.319Z,10.02
2022-08-01T08:58:49.822Z,14.17
2022-08-01T09:01:17.673Z,13.13
2022-08-01T09:03:49.594Z,12.07
2022-08-01T09:06:16.142Z,15.85
2022-08-01T09:08:42.636Z,12.57
2022-08-01T09:11:09.249Z,9.80
2022-08-01T09:13:35.723Z,14.70
2022-08-01T09:16:02.333Z,15.60
2022-08-01T09:18:33.144Z,15.15
2022-08-01T09:21:10.145Z,11.82
2022-08-01T09:23:54.061Z,12.80
2022-08-01T09:26:31.745Z,15.68
2022-08-01T09:29:00.241Z,13.30
2022-08-01T09:31:38.138Z,11.80
2022-08-01T09:34:05.637Z,12.20
2022-08-01T09:37:07.750Z,10.52
2022-08-01T09:39:38.418Z,13.73
2022-08-01T09:42:28.840Z,11.65
2022-08-01T09:44:57.162Z,12.30
2022-08-01T09:47:39.307Z,10.60
2022-08-01T09:50:10.722Z,9.38
2022-08-01T09:52:38.048Z,13.07
2022-08-01T09:55:08.392Z,14.45
2022-08-01T09:57:35.248Z,8.15
2022-08-01T10:00:02.937Z,12.18
2022-08-01T10:02:30.690Z,10.70
2022-08-01T10:05:03.291Z,9.85
2022-08-01T10:07:42.999Z,14.40
2022-08-01T10:10:16.858Z,12.75
2022-08-01T10:12:45.439Z,13.07
2022-08-01T10:15:18.303Z,13.82
2022-08-01T10:17:54.559Z,8.75
2022-08-01T10:20:30.883Z,11.70
2022-08-01T10:23:05.847Z,11.20
2022-08-01T10:25:42.982Z,10.52
2022-08-01T10:28:21.202Z,12.05
2022-08-01T10:30:49.636Z,6.03
2022-08-01T10:33:49.660Z,7.85
2022-08-01T10:36:08.466Z,6.55
2022-08-01T10:38:36.264Z,9.07
2022-08-01T10:41:06.125Z,9.23
2022-08-01T10:43:35.299Z,8.63
2022-08-01T10:46:04.154Z,8.88
2022-08-01T10:48:54.874Z,5.70
2022-08-01T10:51:22.514Z,7.22
2022-08-01T10:54:13.562Z,11.35
2022-08-01T10:56:48.618Z,8.55
2022-08-01T10:59:49.115Z,5.63
2022-08-01T11:02:08.856Z,8.32
2022-08-01T11:04:41.668Z,7.68
2022-08-01T11:07:25.749Z,7.25
2022-08-01T11:10:04.781Z,8.05
2022-08-01T11:12:43.955Z,6.22
2022-08-01T11:15:10.696Z,10.25
2022-08-01T11:17:45.091Z,6.38
2022-08-01T11:20:14.479Z,7.07
2022-08-01T11:22:59.855Z,8.70
2022-08-01T11:26:04.724Z,6.15
2022-08-01T11:28:32.049Z,4.35
2022-08-01T11:31:14.098Z,4.75
2022-08-01T11:33:41.093Z,6.78
2022-08-01T11:36:14.417Z,3.55
2022-08-01T11:38:45.734Z,5.97
2022-08-01T11:41:15.593Z,3.72
2022-08-01T11:44:15.535Z,6.28
2022-08-01T11:47:08.722Z,4.90
2022-08-01T11:49:41.200Z,4.93
2022-08-01T11:52:27.673Z,5.18
2022-08-01T11:55:03.211Z,5.20
2022-08-01T11:57:34.168Z,4.20
2022-08-01T12:00:04.739Z,5.53
2022-08-01T12:02:35.819Z,7.05
2022-08-01T12:05:08.369Z,7.50
2022-08-01T12:07:39.811Z,6.78
2022-08-01T12:10:14.371Z,5.43
2022-08-01T12:12:49.581Z,4.28
2022-08-01T12:15:17.334Z,6.13
2022-08-01T12:17:57.652Z,4.00
2022-08-01T12:20:30.417Z,3.75
2022-08-01T12:22:58.871Z,6.85
2022-08-01T12:25:25.470Z,4.78
2022-08-01T12:27:55.956Z,3.45
2022-08-01T12:30:24.758Z,6.78
2022-08-01T12:32:52.749Z,6.53
2022-08-01T12:35:24.859Z,7.75
2022-08-01T12:38:03.676Z,9.05
2022-08-01T12:40:40.859Z,6.13
2022-08-01T12:43:15.890Z,6.72
2022-08-01T12:45:57.594Z,5.00
2022-08-01T12:48:25.973Z,25.37
2022-08-01T12:50:53.950Z,6.47
2022-08-01T12:53:22.194Z,5.32
2022-08-01T12:55:58.221Z,7.18
2022-08-01T12:58:32.378Z,4.35
2022-08-01T13:01:26.793Z,7.07
2022-08-01T13:04:05.190Z,8.63
2022-08-01T13:06:31.729Z,3.90
2022-08-01T13:09:08.425Z,7.22
2022-08-01T13:11:35.401Z,6.00
2022-08-01T13:14:02.311Z,6.38
2022-08-01T13:16:55.930Z,7.35
2022-08-01T13:19:15.713Z,5.18
2022-08-01T13:21:55.819Z,5.22
2022-08-01T13:24:30.127Z,2.88
2022-08-01T13:27:05.491Z,2.38
2022-08-01T13:29:48.218Z,5.18
2022-08-01T13:32:28.244Z,2.17
2022-08-01T13:35:05.714Z,3.78
2022-08-01T13:37:32.352Z,2.65
2022-08-01T13:39:59.047Z,3.85
2022-08-01T13:42:25.573Z,1.77
2022-08-01T13:44:52.092Z,4.78
2022-08-01T13:47:19.758Z,3.70
2022-08-01T13:50:01.488Z,7.35
2022-08-01T13:52:28.473Z,2.00
2022-08-01T13:54:54.974Z,2.92
2022-08-01T13:57:22.721Z,1.83
2022-08-01T13:59:49.407Z,3.25
2022-08-01T14:02:15.919Z,3.30
2022-08-01T14:04:43.188Z,3.58
2022-08-01T14:07:14.202Z,5.82
2022-08-01T14:09:57.819Z,2.08
2022-08-01T14:12:27.880Z,3.38
2022-08-01T14:14:54.398Z,3.55
2022-08-01T14:17:20.965Z,4.28
2022-08-01T14:19:48.574Z,3.22
2022-08-01T14:22:15.058Z,4.47
2022-08-01T14:24:41.580Z,3.67
2022-08-01T14:27:08.259Z,5.13
2022-08-01T14:29:54.571Z,4.47
2022-08-01T14:32:23.167Z,2.60
2022-08-01T14:34:56.206Z,3.90
2022-08-01T14:37:22.687Z,2.20
2022-08-01T14:39:55.943Z,2.55
2022-08-01T14:42:22.498Z,4.30
2022-08-01T14:44:49.844Z,4.45
2022-08-01T14:47:21.736Z,3.78
2022-08-01T14:49:49.416Z,1.92
2022-08-01T14:52:15.997Z,2.67
2022-08-01T14:54:42.441Z,3.10
2022-08-01T14:57:09.321Z,2.13
2022-08-01T14:59:36.895Z,2.78
2022-08-01T15:02:04.023Z,3.50
2022-08-01T15:04:31.460Z,1.90
2022-08-01T15:06:58.067Z,2.03
2022-08-01T15:09:24.581Z,3.65
2022-08-01T15:11:51.058Z,2.95
2022-08-01T15:14:36.031Z,3.15
2022-08-01T15:17:02.600Z,3.50
2022-08-01T15:19:29.199Z,3.35
2022-08-01T15:21:55.706Z,2.58
2022-08-01T15:24:22.185Z,4.35
2022-08-01T15:26:48.657Z,4.25
2022-08-01T15:29:16.579Z,5.10
2022-08-01T15:31:43.056Z,3.13
2022-08-01T15:34:10.320Z,2.45
2022-08-01T15:36:36.798Z,4.65
2022-08-01T15:39:09.686Z,1.83
2022-08-01T15:41:36.245Z,2.55
2022-08-01T15:44:02.973Z,3.50
2022-08-01T15:46:29.560Z,4.80
2022-08-01T15:48:56.104Z,3.17
2022-08-01T15:51:23.219Z,4.10
2022-08-01T15:53:49.704Z,2.65
2022-08-01T15:56:16.169Z,4.35
2022-08-01T15:58:42.654Z,3.70
2022-08-01T16:01:09.122Z,2.95
2022-08-01T16:03:35.599Z,2.30
2022-08-01T16:06:02.554Z,2.80
2022-08-01T16:08:29.113Z,2.88
2022-08-01T16:10:55.650Z,2.05
2022-08-01T16:13:22.174Z,4.40
2022-08-01T16:15:48.629Z,2.65
2022-08-01T16:18:16.050Z,4.70
2022-08-01T16:20:45.714Z,5.25
2022-08-01T16:23:13.789Z,4.50
2022-08-01T16:25:40.445Z,2.60
2022-08-01T16:28:07.467Z,1.98
2022-08-01T16:30:33.938Z,4.25
2022-08-01T16:33:07.938Z,4.30
2022-08-01T16:35:40.082Z,1.80
2022-08-01T16:38:08.908Z,6.97
2022-08-01T16:40:47.143Z,4.53
2022-08-01T16:43:19.028Z,2.33
2022-08-01T16:45:46.593Z,6.47
2022-08-01T16:48:16.029Z,3.97
2022-08-01T16:50:43.117Z,3.17
2022-08-01T16:53:09.653Z,4.40
2022-08-01T16:55:49.379Z,5.25
2022-08-01T16:58:27.959Z,3.38
2022-08-01T17:00:57.497Z,3.90
2022-08-01T17:03:51.229Z,6.03
2022-08-01T17:06:19.266Z,7.78
2022-08-01T17:08:49.832Z,5.72
2022-08-01T17:11:16.587Z,3.95
2022-08-01T17:13:43.665Z,3.00
2022-08-01T17:16:10.498Z,5.00
2022-08-01T17:18:37.144Z,4.45
2022-08-01T17:21:03.955Z,2.22
2022-08-01T17:23:31.764Z,4.78
2022-08-01T17:25:59.011Z,5.43
2022-08-01T17:28:26.167Z,4.30
2022-08-01T17:30:52.729Z,5.50
2022-08-01T17:33:19.273Z,5.00
2022-08-01T17:35:45.766Z,3.33
2022-08-01T17:38:12.288Z,3.67
2022-08-01T17:40:40.546Z,5.40
2022-08-01T17:43:07.828Z,4.03
2022-08-01T17:45:38.121Z,5.47
2022-08-01T17:48:07.055Z,3.20
2022-08-01T17:50:33.564Z,2.55
2022-08-01T17:53:00.071Z,4.20
2022-08-01T17:55:55.408Z,5.68
2022-08-01T17:58:14.474Z,3.13
2022-08-01T18:00:41.484Z,4.40
2022-08-01T18:03:08.448Z,3.42
2022-08-01T18:05:38.369Z,6.05
2022-08-01T18:08:07.353Z,5.63
2022-08-01T18:10:33.903Z,6.18
2022-08-01T18:13:01.876Z,5.28
2022-08-01T18:15:29.602Z,4.93
2022-08-01T18:17:59.399Z,5.38
2022-08-01T18:20:26.052Z,4.07
2022-08-01T18:22:52.544Z,8.05
2022-08-01T18:25:20.024Z,6.20
2022-08-01T18:28:22.360Z,3.67
2022-08-01T18:30:33.475Z,4.55
2022-08-01T18:33:00.090Z,5.13
2022-08-01T18:35:51.475Z,6.35
2022-08-01T18:38:13.285Z,6.68
2022-08-01T18:40:40.094Z,11.38
2022-08-01T18:43:06.792Z,8.05
2022-08-01T18:45:34.485Z,4.88
2022-08-01T18:48:02.038Z,4.30
2022-08-01T18:50:28.619Z,5.00
2022-08-01T18:52:55.163Z,4.13
2022-08-01T18:55:21.701Z,5.80
2022-08-01T18:57:48.197Z,4.97
2022-08-01T19:00:15.201Z,3.50
2022-08-01T19:02:42.464Z,4.32
2022-08-01T19:05:10.117Z,4.75
2022-08-01T19:08:05.083Z,5.65
2022-08-01T19:10:23.462Z,7.57
2022-08-01T19:12:49.940Z,3.00
2022-08-01T19:15:16.539Z,4.05
2022-08-01T19:17:44.639Z,5.88
2022-08-01T19:20:11.390Z,6.57
2022-08-01T19:22:37.886Z,4.70
2022-08-01T19:25:05.058Z,3.90
2022-08-01T19:27:35.249Z,7.80
2022-08-01T19:30:02.921Z,3.05
2022-08-01T19:32:32.842Z,6.63
2022-08-01T19:35:11.468Z,5.10
2022-08-01T19:37:45.648Z,5.95
2022-08-01T19:40:26.948Z,5.97
2022-08-01T19:42:56.032Z,4.97
2022-08-01T19:45:22.845Z,4.53
2022-08-01T19:47:55.969Z,4.80
2022-08-01T19:50:23.816Z,3.45
2022-08-01T19:52:52.770Z,4.28
2022-08-01T19:55:19.658Z,5.75
2022-08-01T19:57:59.285Z,3.35
2022-08-01T20:00:37.652Z,2.72
2022-08-01T20:03:04.689Z,3.40
2022-08-01T20:05:31.442Z,5.15
2022-08-01T20:07:58.822Z,4.70
2022-08-01T20:10:25.346Z,4.22
2022-08-01T20:12:53.038Z,5.53
2022-08-01T20:15:21.176Z,6.93
2022-08-01T20:17:47.671Z,4.13
2022-08-01T20:20:14.199Z,3.67
2022-08-01T20:22:41.793Z,7.32
2022-08-01T20:25:09.301Z,5.38
2022-08-01T20:27:38.782Z,7.32
2022-08-01T20:30:05.679Z,3.47
2022-08-01T20:32:37.245Z,6.57
2022-08-01T20:35:05.033Z,8.45
2022-08-01T20:38:04.002Z,5.97
2022-08-01T20:40:21.978Z,7.22
2022-08-01T20:42:51.904Z,6.30
2022-08-01T20:45:18.948Z,6.97
2022-08-01T20:47:46.892Z,3.88
2022-08-01T20:50:53.304Z,4.13
2022-08-01T20:53:18.817Z,3.38
2022-08-01T20:55:49.750Z,5.20
2022-08-01T20:58:28.973Z,6.63
2022-08-01T21:01:00.040Z,6.57
2022-08-01T21:03:36.797Z,8.75
2022-08-01T21:06:14.707Z,5.50
2022-08-01T21:08:44.097Z,4.53
2022-08-01T21:11:19.455Z,6.13
2022-08-01T21:13:48.018Z,4.93
2022-08-01T21:16:24.496Z,4.75
2022-08-01T21:19:19.602Z,8.70
2022-08-01T21:22:27.162Z,8.18
2022-08-01T21:24:58.868Z,5.32
2022-08-01T21:27:33.233Z,5.60
2022-08-01T21:30:04.421Z,4.43
2022-08-01T21:32:32.941Z,6.72
2022-08-01T21:35:00.983Z,8.80
2022-08-01T21:37:29.597Z,5.70
2022-08-01T21:39:58.057Z,9.45
2022-08-01T21:42:26.886Z,8.98
2022-08-01T21:44:55.687Z,8.05
2022-08-01T21:47:23.169Z,8.65
2022-08-01T21:49:49.885Z,9.43
2022-08-01T21:52:22.575Z,10.35
2022-08-01T21:55:16.520Z,10.95
2022-08-01T21:58:00.358Z,9.00
2022-08-01T22:00:26.995Z,9.48
2022-08-01T22:03:25.781Z,9.15
2022-08-01T22:05:53.937Z,7.07
2022-08-01T22:08:48.599Z,7.40
2022-08-01T22:11:20.577Z,6.43
2022-08-01T22:13:47.275Z,7.75
2022-08-01T22:16:15.381Z,10.02
2022-08-01T22:18:42.386Z,10.77
2022-08-01T22:21:09.609Z,11.02
2022-08-01T22:23:37.556Z,14.60
2022-08-01T22:26:09.429Z,10.32
2022-08-01T22:28:37.194Z,12.05
2022-08-01T22:31:04.350Z,10.73
2022-08-01T22:33:33.856Z,10.98
2022-08-01T22:36:00.712Z,16.20
2022-08-01T22:38:27.319Z,17.92
2022-08-01T22:41:00.645Z,13.95
2022-08-01T22:43:35.040Z,13.77
2022-08-01T22:46:19.619Z,13.38
2022-08-01T22:48:51.260Z,10.88
2022-08-01T22:51:20.751Z,14.32
2022-08-01T22:53:58.835Z,12.27
2022-08-01T22:56:25.311Z,12.48
2022-08-01T22:58:52.551Z,11.95
2022-08-01T23:01:22.123Z,12.55
2022-08-01T23:03:53.751Z,14.40
2022-08-01T23:06:38.694Z,12.32
2022-08-01T23:09:05.227Z,18.20
2022-08-01T23:11:32.641Z,14.52
2022-08-01T23:14:02.326Z,16.23
2022-08-01T23:16:30.275Z,16.45
2022-08-01T23:18:58.881Z,22.98
2022-08-01T23:21:27.274Z,19.27
2022-08-01T23:23:54.697Z,17.85
2022-08-01T23:26:23.403Z,20.35
2022-08-01T23:28:51.770Z,21.60
2022-08-01T23:31:20.076Z,22.30
2022-08-01T23:33:46.577Z,20.88
2022-08-01T23:36:17.261Z,22.98
2022-08-01T23:38:46.771Z,22.27
2022-08-01T23:41:15.893Z,24.93
2022-08-01T23:43:51.957Z,25.48
2022-08-01T23:46:18.967Z,28.30
2022-08-01T23:48:45.428Z,24.67
2022-08-01T23:51:23.968Z,24.17
2022-08-01T23:53:51.340Z,26.58
2022-08-01T23:56:21.904Z,25.25
2022-08-01T23:58:51.963Z,25.58
